Time;durP1;ratioP1;P1;durP2;ratioP2;P2;SDS_P1;SDS_P2;PMS_P1;PMS_P2;Temp;Humidity;BMP_temperature;BMP_pressure;BME280_temperature;BME280_humidity;BME280_pressure;Samples;Min_cycle;Max_cycle;Signal;HPM_P1;HPM_P2
2022/11/21 00:01:19;;;;;;;27.95;16.67;;;;;;;-0.31;100.00;99313.29;1723550;82;21075;-72
2022/11/21 00:03:45;;;;;;;23.83;16.20;;;;;;;-0.28;100.00;99306.69;1732912;82;21414;-71
2022/11/21 00:06:14;;;;;;;24.12;16.50;;;;;;;-0.33;100.00;99306.52;1725440;82;21355;-72
2022/11/21 00:08:42;;;;;;;23.60;16.30;;;;;;;-0.36;100.00;99316.30;1721281;82;21620;-72
2022/11/21 00:11:09;;;;;;;21.23;14.83;;;;;;;-0.31;100.00;99317.30;1727090;82;21585;-72
2022/11/21 00:13:35;;;;;;;;;;;;;;;-0.27;100.00;99319.03;1722676;82;21054;-72
2022/11/21 00:16:05;;;;;;;24.83;16.20;;;;;;;-0.31;100.00;99311.95;1728073;82;20158;-73
2022/11/21 00:18:33;;;;;;;23.75;16.15;;;;;;;-0.36;100.00;99310.96;1726998;82;21580;-72
2022/11/21 00:21:07;;;;;;;23.98;15.75;;;;;;;-0.32;100.00;99296.92;1739108;82;21091;-73
2022/11/21 00:23:35;;;;;;;22.60;15.65;;;;;;;-0.33;100.00;99299.83;1735745;82;21078;-72
2022/11/21 00:26:09;;;;;;;24.35;15.40;;;;;;;-0.33;100.00;99297.16;1725603;82;21660;-73
2022/11/21 00:35:23;;;;;;;25.05;16.85;;;;;;;-0.29;100.00;99271.63;1797521;78;22986;-73
2022/11/21 00:37:50;;;;;;;25.60;17.35;;;;;;;-0.33;100.00;99285.95;1736191;81;21038;-72
2022/11/21 00:44:28;;;;;;;24.30;16.00;;;;;;;-0.34;100.00;99264.75;1858131;74;22818;-73
2022/11/21 00:46:54;;;;;;;23.32;16.17;;;;;;;-0.46;100.00;99271.81;1834148;75;21056;-72
2022/11/21 00:49:21;;;;;;;21.87;15.23;;;;;;;-0.51;100.00;99275.94;1833290;77;21051;-73
2022/11/21 00:51:48;;;;;;;;;;;;;;;-0.46;100.00;99267.80;1847256;77;21052;-73
2022/11/21 00:54:14;;;;;;;26.05;16.50;;;;;;;-0.50;100.00;99257.50;1832737;77;20110;-73
2022/11/21 00:56:40;;;;;;;25.55;16.23;;;;;;;-0.66;100.00;99259.84;1822055;77;21079;-73
2022/11/21 00:59:07;;;;;;;23.30;16.23;;;;;;;-0.61;100.00;99252.84;1823777;77;21062;-73
2022/11/21 01:09:38;;;;;;;23.77;15.65;;;;;;;-0.59;100.00;99234.73;1797258;78;23468;-73
2022/11/21 01:12:05;;;;;;;27.58;16.48;;;;;;;-0.69;100.00;99253.08;1738287;80;21057;-74
2022/11/21 01:14:32;;;;;;;22.17;15.18;;;;;;;-0.57;100.00;99251.91;1724447;81;21434;-72
2022/11/21 01:20:22;;;;;;;26.23;16.87;;;;;;;-0.48;100.00;99249.28;1764813;79;22971;-72
2022/11/21 01:22:49;;;;;;;24.65;15.88;;;;;;;-0.45;100.00;99253.37;1724221;81;21102;-72
2022/11/21 01:25:17;;;;;;;26.62;18.25;;;;;;;-0.37;100.00;99247.28;1725512;82;21062;-72
2022/11/21 01:27:44;;;;;;;25.20;17.10;;;;;;;-0.35;100.00;99239.03;1722183;82;21101;-73
2022/11/21 01:30:13;;;;;;;27.82;18.17;;;;;;;-0.36;100.00;99236.08;1714083;81;21089;-72
2022/11/21 01:32:40;;;;;;;26.15;17.62;;;;;;;-0.33;100.00;99239.14;1713787;82;21109;-73
2022/11/21 01:35:07;;;;;;;29.07;18.75;;;;;;;-0.32;100.00;99238.63;1712425;81;21050;-73
2022/11/21 01:37:34;;;;;;;30.45;18.32;;;;;;;-0.36;100.00;99243.59;1714926;82;21550;-73
2022/11/21 01:40:01;;;;;;;32.35;20.08;;;;;;;-0.37;100.00;99241.94;1725613;83;21090;-73
2022/11/21 01:42:27;;;;;;;;;;;;;;;-0.30;100.00;99229.86;1722963;83;21640;-73
2022/11/21 01:44:55;;;;;;;36.53;21.02;;;;;;;-0.36;100.00;99223.53;1714234;83;20160;-72
2022/11/21 01:47:22;;;;;;;32.53;19.50;;;;;;;-0.45;100.00;99223.97;1712798;83;21145;-73
2022/11/21 01:49:49;;;;;;;34.75;20.20;;;;;;;-0.39;100.00;99227.94;1725622;83;21134;-72
2022/11/21 01:52:23;;;;;;;37.42;20.10;;;;;;;-0.36;100.00;99221.37;1722749;82;21169;-72
2022/11/21 01:55:02;;;;;;;33.08;19.62;;;;;;;-0.40;100.00;99214.29;1722659;83;21137;-72
2022/11/21 01:57:37;;;;;;;33.90;20.52;;;;;;;-0.36;100.00;99210.67;1710336;83;21169;-72
2022/11/21 02:00:23;;;;;;;36.17;20.68;;;;;;;-0.33;100.00;99218.26;1721444;83;21113;-72
2022/11/21 02:02:55;;;;;;;29.72;17.45;;;;;;;-0.39;100.00;99234.62;1727669;82;21102;-72
2022/11/21 02:05:25;;;;;;;28.75;18.87;;;;;;;-0.45;100.00;99252.88;1733035;82;21638;-72
2022/11/21 02:07:56;;;;;;;38.70;19.75;;;;;;;-0.49;100.00;99250.31;1708655;83;21082;-72
2022/11/21 02:10:22;;;;;;;38.67;20.37;;;;;;;-0.48;100.00;99247.95;1722205;83;21573;-73
2022/11/21 02:12:57;;;;;;;33.05;18.70;;;;;;;-0.44;100.00;99249.68;1725557;83;21598;-73
2022/11/21 02:18:10;;;;;;;29.65;19.10;;;;;;;-0.34;100.00;99252.20;1723820;79;22456;-73
2022/11/21 02:20:36;;;;;;;37.10;20.45;;;;;;;-0.36;100.00;99256.13;1702011;83;21050;-72
2022/11/21 02:23:33;;;;;;;30.92;19.30;;;;;;;-0.34;100.00;99258.06;1695747;83;21070;-73
2022/11/21 02:25:59;;;;;;;31.57;18.23;;;;;;;-0.26;100.00;99263.18;1674946;83;21075;-73
2022/11/21 02:28:25;;;;;;;32.50;19.52;;;;;;;-0.30;100.00;99268.13;1699304;83;20963;-73
2022/11/21 02:30:52;;;;;;;35.60;20.27;;;;;;;-0.37;100.00;99264.67;1712013;83;20979;-73
2022/11/21 02:33:19;;;;;;;34.43;19.50;;;;;;;-0.40;100.00;99259.75;1709571;83;21007;-73
2022/11/21 02:36:00;;;;;;;35.65;21.20;;;;;;;-0.34;100.00;99260.73;1702785;83;21874;-72
2022/11/21 02:38:32;;;;;;;33.70;18.90;;;;;;;-0.29;100.00;99250.23;1713248;83;21015;-73
2022/11/21 02:41:25;;;;;;;33.90;19.12;;;;;;;-0.24;100.00;99255.23;1695336;83;21544;-72
2022/11/21 02:43:54;;;;;;;35.92;20.00;;;;;;;-0.26;100.00;99248.47;1641646;86;21109;-72
2022/11/21 02:46:22;;;;;;;31.23;19.30;;;;;;;-0.34;100.00;99247.37;1669233;85;21137;-72
2022/11/21 02:48:49;;;;;;;;;;;;;;;-0.33;100.00;99250.36;1723976;83;21658;-73
2022/11/21 02:51:15;;;;;;;37.67;20.27;;;;;;;-0.29;100.00;99243.55;1701311;83;20146;-73
2022/11/21 02:53:42;;;;;;;35.03;21.17;;;;;;;-0.45;100.00;99238.67;1706866;83;21078;-73
2022/11/21 02:56:09;;;;;;;31.27;18.80;;;;;;;-0.67;100.00;99224.27;1719736;82;21086;-72
2022/11/21 02:58:35;;;;;;;;;;;;;;;-0.67;100.00;99224.27;1725595;83;21013;-73
2022/11/21 03:01:02;;;;;;;36.38;21.35;;;;;;;-0.73;100.00;99220.29;1720331;82;20167;-72
2022/11/21 03:03:29;;;;;;;42.33;20.43;;;;;;;-0.75;100.00;99225.86;1711460;83;21118;-72
2022/11/21 03:05:55;;;;;;;32.93;19.87;;;;;;;-0.72;100.00;99229.45;1705712;83;21034;-72
2022/11/21 03:08:21;;;;;;;31.48;19.25;;;;;;;-0.62;100.00;99237.00;1706827;83;21026;-73
2022/11/21 03:10:50;;;;;;;37.38;20.62;;;;;;;-0.60;100.00;99233.08;1712242;83;21078;-72
2022/11/21 03:13:16;;;;;;;29.87;18.42;;;;;;;-0.58;100.00;99239.56;1721823;83;21117;-72
2022/11/21 03:15:44;;;;;;;30.57;20.02;;;;;;;-0.56;100.00;99249.01;1699304;83;21027;-72
2022/11/21 03:18:11;;;;;;;31.57;20.50;;;;;;;-0.63;100.00;99245.53;1688396;83;21066;-72
2022/11/21 03:20:37;;;;;;;;;;;;;;;-0.60;100.00;99246.96;1692836;83;21424;-72
2022/11/21 03:23:04;;;;;;;27.95;17.45;;;;;;;-0.55;100.00;99250.66;1692171;83;20183;-72
2022/11/21 03:25:30;;;;;;;34.43;19.95;;;;;;;-0.59;100.00;99248.61;1691791;83;21562;-73
2022/11/21 03:27:58;;;;;;;37.80;20.45;;;;;;;-0.67;100.00;99249.66;1690851;83;21118;-74
2022/11/21 03:30:24;;;;;;;35.00;20.37;;;;;;;-0.69;100.00;99249.58;1687704;83;21011;-73
2022/11/21 03:32:55;;;;;;;31.57;20.90;;;;;;;-0.66;100.00;99245.97;1704857;83;21162;-73
2022/11/21 03:35:21;;;;;;;34.70;20.57;;;;;;;-0.56;100.00;99253.53;1699626;84;21008;-73
2022/11/21 03:37:48;;;;;;;39.98;20.72;;;;;;;-0.53;100.00;99261.95;1688103;84;21102;-72
2022/11/21 03:40:15;;;;;;;;;;;;;;;-0.58;100.00;99248.92;1691667;84;21055;-73
2022/11/21 03:42:43;;;;;;;33.05;20.48;;;;;;;-0.52;100.00;99248.89;1681799;84;20934;-73
2022/11/21 03:45:10;;;;;;;33.20;20.37;;;;;;;-0.54;100.00;99242.12;1691067;84;21628;-73
2022/11/21 03:47:36;;;;;;;34.35;20.48;;;;;;;-0.48;100.00;99243.11;1683243;84;21067;-73
2022/11/21 03:50:03;;;;;;;33.45;21.33;;;;;;;-0.48;100.00;99243.11;1686209;84;21011;-72
2022/11/21 03:52:29;;;;;;;33.33;20.85;;;;;;;-0.42;100.00;99240.41;1696629;84;21126;-72
2022/11/21 03:54:56;;;;;;;35.65;21.33;;;;;;;-0.42;100.00;99239.06;1702262;84;21621;-73
2022/11/21 03:57:22;;;;;;;34.73;20.52;;;;;;;-0.47;100.00;99242.91;1694668;84;21429;-73
2022/11/21 03:59:49;;;;;;;34.78;19.95;;;;;;;-0.45;100.00;99252.05;1632663;86;21355;-72
2022/11/21 04:02:15;;;;;;;36.55;20.10;;;;;;;-0.43;100.00;99239.30;1687384;84;21158;-72
2022/11/21 04:04:42;;;;;;;;;;;;;;;-0.46;100.00;99233.84;1706827;84;21036;-72
2022/11/21 04:07:09;;;;;;;35.88;20.12;;;;;;;-0.56;100.00;99230.29;1698077;83;20186;-71
2022/11/21 04:09:35;;;;;;;;;;;;;;;-0.56;100.00;99232.97;1700285;84;21051;-72
2022/11/21 04:12:03;;;;;;;29.52;18.67;;;;;;;-0.48;100.00;99239.93;1692570;84;20133;-73
2022/11/21 04:14:30;;;;;;;32.58;19.80;;;;;;;-0.58;100.00;99221.67;1679054;84;21011;-73
2022/11/21 04:16:58;;;;;;;36.75;19.90;;;;;;;-0.61;100.00;99222.11;1695940;82;21062;-72
2022/11/21 04:19:25;;;;;;;30.90;19.23;;;;;;;-0.54;100.00;99224.75;1729555;82;21054;-72
2022/11/21 04:21:51;;;;;;;38.63;21.57;;;;;;;-0.48;100.00;99220.39;1738430;82;21098;-72
2022/11/21 04:24:18;;;;;;;31.82;20.17;;;;;;;-0.51;100.00;99221.64;1737870;82;21018;-73
2022/11/21 04:26:44;;;;;;;33.23;20.45;;;;;;;-0.50;100.00;99220.62;1720854;82;21638;-73
2022/11/21 04:29:11;;;;;;;;;;;;;;;-0.48;100.00;99217.20;1735321;82;21022;-72
2022/11/21 04:31:37;;;;;;;33.23;20.77;;;;;;;-0.55;100.00;99222.59;1721099;82;20197;-74
2022/11/21 04:34:03;;;;;;;;;;;;;;;-0.71;100.00;99221.71;1725417;82;21053;-73
2022/11/21 04:36:30;;;;;;;32.55;19.40;;;;;;;-0.68;100.00;99216.48;1716992;82;20213;-73
2022/11/21 04:38:57;;;;;;;35.83;22.02;;;;;;;-0.65;100.00;99220.06;1724217;82;21018;-73
2022/11/21 04:41:23;;;;;;;36.68;21.33;;;;;;;-0.65;100.00;99214.71;1714031;82;21122;-73
2022/11/21 04:43:50;;;;;;;34.55;20.57;;;;;;;-0.62;100.00;99222.30;1711392;82;21065;-73
2022/11/21 04:46:17;;;;;;;38.02;22.73;;;;;;;-0.58;100.00;99223.52;1710345;82;21078;-73
2022/11/21 04:48:44;;;;;;;39.25;22.90;;;;;;;-0.55;100.00;99231.94;1711750;82;21659;-73
2022/11/21 04:51:10;;;;;;;;;;;;;;;-0.51;100.00;99231.00;1709951;82;21109;-73
2022/11/21 04:53:36;;;;;;;41.85;23.80;;;;;;;-0.50;100.00;99220.08;1722046;82;20155;-73
2022/11/21 04:56:04;;;;;;;36.10;21.73;;;;;;;-0.52;100.00;99204.77;1711707;82;21113;-73
2022/11/21 04:58:31;;;;;;;39.05;22.17;;;;;;;-0.45;100.00;99203.40;1724772;82;21074;-73
2022/11/21 05:00:59;;;;;;;;;;;;;;;-0.41;100.00;99195.77;1713056;82;21121;-73
2022/11/21 05:03:26;;;;;;;;;;;;;;;-0.39;100.00;99183.02;1733547;82;20366;-73
2022/11/21 05:05:52;;;;;;;39.65;21.07;;;;;;;-0.52;100.00;99186.57;1725752;82;20159;-73
2022/11/21 05:08:18;;;;;;;42.70;23.22;;;;;;;-0.63;100.00;99185.39;1720411;82;21652;-72
2022/11/21 05:13:30;;;;;;;41.18;23.18;;;;;;;-0.65;100.00;99179.45;1725778;82;21058;-74
2022/11/21 05:15:57;;;;;;;;;;;;;;;-0.70;100.00;99182.44;1732471;82;20986;-73
2022/11/21 05:18:23;;;;;;;37.83;21.97;;;;;;;-0.64;100.00;99180.27;1693554;84;20187;-73
2022/11/21 05:20:50;;;;;;;40.20;22.77;;;;;;;-0.59;100.00;99172.41;1689639;83;21629;-73
2022/11/21 05:23:17;;;;;;;42.75;24.02;;;;;;;-0.59;100.00;99163.06;1691534;83;21104;-74
2022/11/21 05:25:44;;;;;;;43.65;23.27;;;;;;;-0.59;100.00;99152.37;1702242;83;21069;-74
2022/11/21 05:28:10;;;;;;;39.58;22.70;;;;;;;-0.54;100.00;99152.05;1695605;83;21134;-74
2022/11/21 05:30:37;;;;;;;30.20;19.65;;;;;;;-0.53;100.00;99152.84;1709832;83;21608;-73
2022/11/21 05:33:04;;;;;;;39.70;22.55;;;;;;;-0.58;100.00;99153.50;1711444;83;21070;-74
2022/11/21 05:35:30;;;;;;;39.30;22.52;;;;;;;-0.65;100.00;99149.22;1711041;83;21023;-74
2022/11/21 05:37:57;;;;;;;43.80;25.15;;;;;;;-0.69;100.00;99146.16;1705494;83;21112;-75
2022/11/21 05:40:24;;;;;;;39.70;24.43;;;;;;;-0.75;100.00;99143.01;1705389;83;21046;-73
2022/11/21 05:45:36;;;;;;;46.92;26.12;;;;;;;-0.70;100.00;99135.16;1706012;83;21058;-73
2022/11/21 05:48:06;;;;;;;;;;;;;;;-0.75;100.00;99130.16;1659414;85;21656;-74
2022/11/21 05:50:30;;;;;;;42.70;24.92;;;;;;;-0.76;100.00;99125.84;1705109;83;20155;-73
2022/11/21 05:53:02;;;;;;;;;;;;;;;-0.77;100.00;99125.02;1700560;83;21105;-74
2022/11/21 05:55:28;;;;;;;44.95;23.83;;;;;;;-0.83;100.00;99121.87;1702157;83;20486;-73
2022/11/21 05:57:59;;;;;;;;;;;;;;;-0.84;100.00;99143.45;1704558;83;21516;-74
2022/11/21 06:00:27;;;;;;;37.48;21.33;;;;;;;-0.74;100.00;99157.99;1708407;83;20195;-71
2022/11/21 10:52:19;;;;;;;32.05;19.30;;;;;;;-1.55;100.00;98999.34;1774193;79;23532;-74
2022/11/21 10:55:08;;;;;;;20.68;13.55;;;;;;;-1.38;100.00;99007.16;1729617;82;21015;-74
2022/11/21 10:57:48;;;;;;;16.27;11.18;;;;;;;-1.13;100.00;98992.03;1728266;82;21733;-75
2022/11/21 11:00:24;;;;;;;13.48;9.98;;;;;;;-0.94;100.00;98984.11;1742405;82;21472;-77
2022/11/21 11:03:06;;;;;;;15.30;10.35;;;;;;;-0.80;100.00;98978.46;1705803;82;21573;-74
2022/11/21 11:05:37;;;;;;;14.58;10.28;;;;;;;-0.69;100.00;98972.42;1742472;82;21069;-77
2022/11/21 11:08:08;;;;;;;13.58;10.23;;;;;;;-0.57;100.00;98973.88;1721571;82;21031;-77
2022/11/21 11:11:02;;;;;;;13.68;10.32;;;;;;;-0.45;100.00;98976.11;1704144;82;21058;-75
2022/11/21 11:13:32;;;;;;;13.65;9.58;;;;;;;-0.39;100.00;98971.77;1749758;82;21102;-76
2022/11/21 11:16:16;;;;;;;13.30;9.88;;;;;;;-0.29;100.00;98960.04;1711337;82;21059;-76
2022/11/21 11:18:56;;;;;;;12.53;9.30;;;;;;;-0.20;100.00;98946.66;1724717;82;21034;-75
2022/11/21 11:21:43;;;;;;;14.98;10.32;;;;;;;-0.11;100.00;98937.33;1733950;82;21644;-76
2022/11/21 11:24:19;;;;;;;13.83;9.50;;;;;;;-0.06;100.00;98936.94;1741011;80;21021;-75
2022/11/21 11:26:57;;;;;;;15.45;10.85;;;;;;;-0.03;100.00;98925.79;1742980;80;21583;-74
2022/11/21 11:29:33;;;;;;;15.43;10.23;;;;;;;0.02;100.00;98917.09;1706526;82;21027;-75
2022/11/21 11:32:15;;;;;;;12.60;9.80;;;;;;;0.04;100.00;98904.84;1686846;84;21575;-74
2022/11/21 11:34:51;;;;;;;13.48;9.73;;;;;;;0.08;100.00;98898.80;1685399;84;21054;-75
2022/11/21 11:37:34;;;;;;;13.10;9.58;;;;;;;0.11;100.00;98900.23;1683358;84;21161;-75
2022/11/21 11:40:22;;;;;;;14.58;9.55;;;;;;;0.13;100.00;98890.93;1699552;84;21047;-75
2022/11/21 11:49:00;;;;;;;12.47;8.78;;;;;;;0.17;100.00;98856.50;1684013;84;21545;-72
2022/11/21 11:51:33;;;;;;;11.05;8.23;;;;;;;0.14;100.00;98861.80;1685674;84;21492;-72
2022/11/21 11:54:16;;;;;;;10.77;7.70;;;;;;;0.23;100.00;98864.44;1676723;84;21053;-72
2022/11/21 11:56:43;;;;;;;9.23;6.72;;;;;;;0.26;100.00;98856.47;1680194;84;21067;-72
2022/11/21 11:59:33;;;;;;;9.70;7.53;;;;;;;0.30;100.00;98846.43;1687106;84;21050;-73
2022/11/21 12:02:12;;;;;;;8.65;6.65;;;;;;;0.24;100.00;98841.99;1661019;84;21058;-71
2022/11/21 12:04:46;;;;;;;8.10;6.53;;;;;;;0.28;100.00;98831.64;1679286;84;21031;-71
2022/11/21 12:07:20;;;;;;;9.63;6.50;;;;;;;0.27;100.00;98810.75;1677433;84;21152;-72
2022/11/21 12:10:05;;;;;;;8.78;6.35;;;;;;;0.31;100.00;98795.88;1678449;84;21537;-72
2022/11/21 12:12:39;;;;;;;7.65;5.60;;;;;;;0.31;100.00;98783.83;1683011;84;21110;-73
2022/11/21 12:18:22;;;;;;;7.10;4.90;;;;;;;0.30;100.00;98759.95;1683304;84;21089;-70
2022/11/21 12:21:17;;;;;;;5.95;4.58;;;;;;;0.26;100.00;98750.73;1682414;84;21121;-75
2022/11/21 12:23:55;;;;;;;5.45;4.03;;;;;;;0.27;100.00;98745.69;1674965;84;21074;-77
2022/11/21 12:26:54;;;;;;;6.17;4.28;;;;;;;0.23;100.00;98732.46;1685099;84;21182;-74
2022/11/21 12:30:15;;;;;;;5.03;3.83;;;;;;;0.20;100.00;98732.92;1674741;84;21039;-74
2022/11/21 12:32:45;;;;;;;;;;;;;;;0.14;100.00;98730.66;1673525;85;21213;-74
2022/11/21 12:35:49;;;;;;;5.62;3.92;;;;;;;0.16;100.00;98719.19;1637629;87;20136;-77
2022/11/21 12:38:33;;;;;;;5.00;3.70;;;;;;;0.16;100.00;98727.22;1641997;86;21079;-74
2022/11/21 12:44:26;;;;;;;5.33;3.95;;;;;;;0.27;100.00;98713.56;1671195;86;21138;-74
2022/11/21 12:47:07;;;;;;;4.83;3.52;;;;;;;0.20;100.00;98708.32;1662563;84;21525;-74
2022/11/21 12:55:38;;;;;;;5.08;3.55;;;;;;;0.18;100.00;98683.63;1682629;85;21786;-74
2022/11/21 12:58:19;;;;;;;4.95;3.33;;;;;;;0.25;100.00;98681.66;1698942;84;21381;-74
2022/11/21 13:01:18;;;;;;;4.40;3.17;;;;;;;0.26;100.00;98659.73;1674502;85;21144;-74
2022/11/21 13:03:50;;;;;;;4.05;3.02;;;;;;;0.29;100.00;98645.88;1674547;84;21074;-74
2022/11/21 13:06:21;;;;;;;4.75;3.30;;;;;;;0.28;100.00;98635.72;1683164;85;21719;-73
2022/11/21 13:08:48;;;;;;;5.45;3.40;;;;;;;0.26;100.00;98625.75;1673197;85;21012;-74
2022/11/21 13:11:57;;;;;;;5.87;3.65;;;;;;;0.29;100.00;98616.43;1673167;86;21108;-73
2022/11/21 13:14:38;;;;;;;5.30;3.20;;;;;;;0.25;100.00;98605.38;1684894;84;21051;-72
2022/11/21 13:17:27;;;;;;;5.42;3.25;;;;;;;0.28;100.00;98595.56;1660417;84;22250;-72
2022/11/21 13:20:20;;;;;;;7.17;3.72;;;;;;;0.22;100.00;98571.57;1671944;84;21612;-74
2022/11/21 13:22:50;;;;;;;5.15;3.30;;;;;;;0.24;100.00;98573.51;1661393;84;21628;-72
2022/11/21 13:25:34;;;;;;;5.15;3.50;;;;;;;0.22;100.00;98578.27;1680197;83;21090;-70
2022/11/21 13:28:19;;;;;;;6.10;3.50;;;;;;;0.24;100.00;98589.56;1663522;84;21141;-71
2022/11/21 13:30:49;;;;;;;4.42;2.70;;;;;;;0.23;100.00;98573.20;1647661;86;21086;-71
2022/11/21 13:33:42;;;;;;;4.35;2.52;;;;;;;0.26;100.00;98559.35;1666002;85;21529;-71
2022/11/21 13:36:34;;;;;;;3.92;2.45;;;;;;;0.30;100.00;98576.06;1668254;85;21609;-71
2022/11/21 13:39:04;;;;;;;4.78;2.60;;;;;;;0.32;100.00;98577.17;1679717;85;21087;-72
2022/11/21 13:44:40;;;;;;;3.98;2.27;;;;;;;0.22;100.00;98571.05;1696486;84;21877;-71
2022/11/21 13:47:36;;;;;;;3.22;2.00;;;;;;;0.24;100.00;98589.05;1695605;84;21607;-71
2022/11/21 13:50:14;;;;;;;3.92;2.58;;;;;;;0.28;100.00;98591.55;1688562;84;21109;-71
2022/11/21 13:52:58;;;;;;;3.77;2.47;;;;;;;0.34;100.00;98590.61;1668612;83;21703;-71
2022/11/21 13:55:59;;;;;;;2.70;2.00;;;;;;;0.29;100.00;98569.59;1676133;84;21063;-71
2022/11/21 13:58:53;;;;;;;3.47;2.15;;;;;;;0.28;100.00;98575.49;1668822;85;21080;-71
2022/11/21 14:01:34;;;;;;;3.25;1.95;;;;;;;0.29;100.00;98586.98;1688171;84;21130;-71
2022/11/21 14:04:30;;;;;;;3.30;2.25;;;;;;;0.31;100.00;98576.88;1680127;84;21082;-71
2022/11/21 14:07:24;;;;;;;3.55;2.50;;;;;;;0.34;100.00;98583.92;1676151;84;21817;-72
2022/11/21 14:09:54;;;;;;;3.75;2.27;;;;;;;0.38;100.00;98576.23;1682616;84;21095;-72
2022/11/21 14:12:33;;;;;;;4.10;2.50;;;;;;;0.39;100.00;98580.55;1680958;84;21125;-72
2022/11/21 14:15:06;;;;;;;3.30;2.20;;;;;;;0.40;100.00;98574.94;1677461;83;21130;-72
2022/11/21 14:17:41;;;;;;;3.95;2.30;;;;;;;0.40;100.00;98576.28;1692233;84;21118;-72
2022/11/21 14:20:24;;;;;;;2.98;2.20;;;;;;;0.40;100.00;98556.20;1696431;84;21102;-72
2022/11/21 14:23:02;;;;;;;2.67;1.90;;;;;;;0.39;100.00;98541.73;1678227;84;21696;-72
2022/11/21 14:25:36;;;;;;;2.75;1.60;;;;;;;0.40;100.00;98536.13;1741345;82;21322;-71
2022/11/21 14:28:08;;;;;;;3.50;2.02;;;;;;;0.43;100.00;98532.16;1710710;82;21012;-72
2022/11/21 14:30:40;;;;;;;2.35;1.50;;;;;;;0.42;100.00;98519.84;1734170;82;20971;-71
2022/11/21 14:33:27;;;;;;;2.42;1.50;;;;;;;0.44;100.00;98518.54;1727816;82;20978;-72
2022/11/21 14:36:14;;;;;;;2.15;1.37;;;;;;;0.45;100.00;98518.84;1721520;82;20959;-71
2022/11/21 14:38:55;;;;;;;2.50;1.67;;;;;;;0.43;100.00;98517.42;1725938;82;21056;-71
2022/11/21 14:41:26;;;;;;;2.40;1.50;;;;;;;0.42;100.00;98517.16;1722818;82;21067;-71
2022/11/21 14:44:02;;;;;;;2.52;1.30;;;;;;;0.45;100.00;98521.52;1718485;82;21018;-71
2022/11/21 14:46:34;;;;;;;1.85;1.37;;;;;;;0.44;100.00;98521.73;1731578;82;21090;-71
2022/11/21 14:49:20;;;;;;;2.75;1.50;;;;;;;0.48;100.00;98524.23;1726331;82;21418;-72
2022/11/21 14:51:54;;;;;;;2.17;1.50;;;;;;;0.44;100.00;98527.91;1722089;82;21111;-72
2022/11/21 14:54:23;;;;;;;1.98;1.20;;;;;;;0.46;100.00;98523.67;1665603;86;21562;-72
2022/11/21 14:56:59;;;;;;;1.98;1.12;;;;;;;0.49;100.00;98529.37;1723125;82;21087;-71
2022/11/21 14:59:40;;;;;;;1.98;1.17;;;;;;;0.48;100.00;98537.11;1713684;82;21128;-73
2022/11/21 15:02:20;;;;;;;1.80;1.00;;;;;;;0.50;100.00;98528.81;1729787;82;21047;-72
2022/11/21 15:04:48;;;;;;;1.52;1.10;;;;;;;0.52;100.00;98533.95;1726993;82;21054;-72
2022/11/21 15:07:27;;;;;;;2.00;1.20;;;;;;;0.49;100.00;98529.89;1725092;82;21083;-72
2022/11/21 15:09:53;;;;;;;2.20;1.30;;;;;;;0.49;100.00;98544.62;1719489;82;21028;-72
2022/11/21 15:12:29;;;;;;;;;;;;;;;0.46;100.00;98546.43;1729641;82;21059;-72
2022/11/21 15:15:01;;;;;;;3.50;1.47;;;;;;;0.49;100.00;98538.74;1720205;81;20130;-72
2022/11/21 15:17:27;;;;;;;2.80;1.40;;;;;;;0.45;100.00;98542.12;1720893;82;21047;-72
2022/11/21 15:20:16;;;;;;;3.50;1.55;;;;;;;0.43;100.00;98546.36;1718949;82;21094;-73
2022/11/21 15:22:43;;;;;;;2.92;1.82;;;;;;;0.44;100.00;98541.81;1714565;82;21110;-72
2022/11/21 15:25:24;;;;;;;4.87;2.92;;;;;;;0.44;100.00;98535.13;1713788;82;21091;-72
2022/11/21 15:28:03;;;;;;;2.27;1.20;;;;;;;0.46;100.00;98539.19;1716601;82;21150;-73
2022/11/21 15:30:31;;;;;;;2.92;1.60;;;;;;;0.45;100.00;98530.06;1726482;82;21406;-72
2022/11/21 15:33:12;;;;;;;2.87;1.47;;;;;;;0.48;100.00;98518.88;1722491;82;21022;-73
2022/11/21 15:35:49;;;;;;;1.92;1.20;;;;;;;0.45;100.00;98512.14;1723451;82;21039;-73
2022/11/21 15:38:29;;;;;;;2.85;1.77;;;;;;;0.45;100.00;98510.81;1696211;82;21055;-73
2022/11/21 15:41:03;;;;;;;2.52;1.30;;;;;;;0.50;100.00;98502.86;1727055;82;20960;-73
2022/11/21 15:43:46;;;;;;;2.85;2.05;;;;;;;0.52;100.00;98485.23;1723472;82;21015;-73
2022/11/21 15:46:32;;;;;;;6.55;4.05;;;;;;;0.52;100.00;98473.70;1672253;84;21644;-72
2022/11/21 15:49:05;;;;;;;6.65;4.50;;;;;;;0.55;100.00;98462.52;1709086;82;21054;-72
2022/11/21 15:51:39;;;;;;;4.47;2.55;;;;;;;0.50;100.00;98465.89;1707691;82;21075;-73
2022/11/21 15:54:08;;;;;;;3.75;1.85;;;;;;;0.48;100.00;98457.30;1721550;82;21113;-73
2022/11/21 15:56:34;;;;;;;2.10;1.37;;;;;;;0.45;100.00;98453.23;1721012;82;21127;-72
2022/11/21 15:59:01;;;;;;;2.67;1.62;;;;;;;0.44;100.00;98456.14;1734964;82;21066;-72
2022/11/21 16:01:29;;;;;;;1.90;1.20;;;;;;;0.43;100.00;98452.65;1737846;81;21113;-72
2022/11/21 16:03:58;;;;;;;2.05;1.45;;;;;;;0.42;100.00;98454.23;1723842;82;21106;-72
2022/11/21 16:06:24;;;;;;;1.77;1.35;;;;;;;0.43;100.00;98444.62;1721624;83;21625;-73
2022/11/21 16:08:52;;;;;;;2.17;1.25;;;;;;;0.42;100.00;98438.18;1730561;82;21122;-73
2022/11/21 16:11:26;;;;;;;2.12;1.40;;;;;;;0.43;100.00;98426.39;1739003;82;21960;-73
2022/11/21 16:13:57;;;;;;;2.37;1.50;;;;;;;0.43;100.00;98423.20;1737279;82;21132;-73
2022/11/21 16:16:26;;;;;;;1.37;0.75;;;;;;;0.39;100.00;98419.37;1730847;82;21628;-73
2022/11/21 16:18:54;;;;;;;1.62;0.90;;;;;;;0.45;100.00;98414.42;1731867;82;21074;-73
2022/11/21 16:21:21;;;;;;;1.17;0.80;;;;;;;0.37;100.00;98407.28;1715997;82;21102;-74
2022/11/21 16:23:47;;;;;;;1.25;0.75;;;;;;;0.40;100.00;98404.12;1741230;82;21054;-72
2022/11/21 16:26:14;;;;;;;1.40;0.70;;;;;;;0.42;100.00;98380.62;1732721;82;21061;-70
2022/11/21 16:28:40;;;;;;;1.70;0.90;;;;;;;0.45;100.00;98374.78;1735236;82;21038;-71
2022/11/21 16:31:09;;;;;;;1.60;0.75;;;;;;;0.46;100.00;98362.47;1683860;84;21050;-74
2022/11/21 16:33:37;;;;;;;1.87;1.12;;;;;;;0.47;100.00;98344.03;1737477;82;21513;-72
2022/11/21 16:44:40;;;;;;;2.72;1.90;;;;;;;0.44;100.00;98328.97;1791262;78;28153;-72
2022/11/21 16:47:07;;;;;;;1.25;0.82;;;;;;;0.52;100.00;98337.14;1773838;79;21066;-73
2022/11/21 16:49:33;;;;;;;1.47;0.80;;;;;;;0.64;100.00;98355.31;1773786;79;21078;-74
2022/11/21 16:52:00;;;;;;;1.15;0.70;;;;;;;0.60;100.00;98357.66;1783721;79;22357;-73
2022/11/21 16:54:26;;;;;;;1.02;0.70;;;;;;;0.57;100.00;98348.74;1778917;79;21039;-72
2022/11/21 16:56:52;;;;;;;;;;;;;;;0.48;100.00;98352.35;1781482;79;21137;-72
2022/11/21 16:59:19;;;;;;;1.37;0.70;;;;;;;0.51;100.00;98352.39;1779811;79;20142;-73
2022/11/21 17:01:45;;;;;;;1.52;0.82;;;;;;;0.47;100.00;98349.38;1778186;78;21108;-72
2022/11/21 17:04:12;;;;;;;1.70;0.80;;;;;;;0.42;100.00;98349.83;1782127;79;21036;-72
2022/11/21 17:06:38;;;;;;;1.40;0.90;;;;;;;0.45;100.00;98348.83;1785371;79;21123;-70
2022/11/21 17:09:05;;;;;;;1.37;1.00;;;;;;;0.48;100.00;98347.52;1758877;79;21751;-72
2022/11/21 17:11:32;;;;;;;1.62;0.90;;;;;;;0.45;100.00;98342.13;1782897;80;21158;-70
2022/11/21 17:14:05;;;;;;;1.95;1.10;;;;;;;0.47;100.00;98349.38;1783577;78;21046;-73
2022/11/21 17:16:33;;;;;;;1.27;0.93;;;;;;;0.39;100.00;98345.75;1780194;79;21066;-73
2022/11/21 17:19:02;;;;;;;1.42;1.00;;;;;;;0.41;100.00;98340.16;1782247;79;21022;-73
2022/11/21 17:21:29;;;;;;;2.45;1.27;;;;;;;0.43;100.00;98340.72;1775579;79;21114;-73
2022/11/21 17:23:56;;;;;;;1.57;1.00;;;;;;;0.43;100.00;98334.03;1787658;79;20967;-74
2022/11/21 17:30:13;;;;;;;2.52;1.50;;;;;;;0.41;100.00;98320.09;1789779;78;22874;-73
2022/11/21 17:32:39;;;;;;;1.90;1.30;;;;;;;0.34;100.00;98321.58;1731146;82;21055;-73
2022/11/21 17:35:07;;;;;;;2.05;1.10;;;;;;;0.32;100.00;98317.53;1744804;82;20975;-73
2022/11/21 17:37:33;;;;;;;1.72;1.15;;;;;;;0.33;100.00;98310.58;1733074;82;21661;-74
2022/11/21 17:40:00;;;;;;;;;;;;;;;0.37;100.00;98310.38;1726187;82;21181;-74
2022/11/21 17:42:27;;;;;;;2.98;1.55;;;;;;;0.38;100.00;98296.48;1732250;82;20153;-74
2022/11/21 17:44:53;;;;;;;2.98;1.20;;;;;;;0.27;100.00;98298.16;1742874;82;21057;-74